Time;durP1;ratioP1;P1;durP2;ratioP2;P2;SDS_P1;SDS_P2;PMS_P1;PMS_P2;Temp;Humidity;BMP_temperature;BMP_pressure;BME280_temperature;BME280_humidity;BME280_pressure;Samples;Min_cycle;Max_cycle;Signal;HPM_P1;HPM_P2
2024/04/18 00:01:27;;;;;;;0.10;0.10;;;;;;;;;;5309404;26;20482;-91
2024/04/18 00:03:53;;;;;;;0.00;0.00;;;;;;;;;;5315262;26;20479;-89
2024/04/18 00:06:19;;;;;;;0.10;0.10;;;;;;;;;;5309278;26;20507;-90
2024/04/18 00:08:45;;;;;;;0.00;0.00;;;;;;;;;;5333114;26;20006;-89
2024/04/18 00:11:11;;;;;;;0.10;0.10;;;;;;;;;;5315060;26;20041;-90
2024/04/18 00:13:37;;;;;;;0.08;0.08;;;;;;;;;;5313303;26;20023;-90
2024/04/18 00:16:03;;;;;;;0.10;0.10;;;;;;;;;;5313068;26;20012;-90
2024/04/18 00:18:29;;;;;;;0.00;0.00;;;;;;;;;;5315815;26;20036;-89
2024/04/18 00:20:55;;;;;;;0.03;0.03;;;;;;;;;;5314095;26;20005;-88
2024/04/18 00:23:20;;;;;;;0.10;0.10;;;6.10;99.90;;;;;;5304378;26;20004;-90
2024/04/18 00:25:46;;;;;;;0.10;0.10;;;;;;;;;;5304592;26;19997;-90
2024/04/18 00:28:12;;;;;;;0.10;0.10;;;;;;;;;;5312590;26;20036;-89
2024/04/18 00:30:41;;;;;;;0.00;0.00;;;6.20;99.90;;;;;;5308553;26;19997;-90
2024/04/18 00:33:07;;;;;;;0.10;0.10;;;;;;;;;;5304108;26;20009;-89
2024/04/18 00:35:33;;;;;;;0.00;0.00;;;;;;;;;;5310563;26;19997;-89
2024/04/18 00:37:59;;;;;;;0.10;0.10;;;;;;;;;;5311604;26;20029;-88
2024/04/18 00:40:25;;;;;;;0.00;0.00;;;;;;;;;;5312798;26;20001;-90
2024/04/18 00:42:51;;;;;;;0.10;0.10;;;;;;;;;;5315417;26;20001;-89
2024/04/18 00:45:19;;;;;;;0.00;0.00;;;;;;;;;;5309153;26;20007;-89
2024/04/18 00:47:47;;;;;;;0.10;0.10;;;6.20;99.90;;;;;;5311087;26;20367;-91
2024/04/18 00:50:14;;;;;;;0.00;0.00;;;6.20;99.90;;;;;;5311566;26;20032;-90
2024/04/18 00:52:40;;;;;;;0.10;0.10;;;;;;;;;;5314184;26;20008;-89
2024/04/18 00:55:06;;;;;;;0.10;0.10;;;;;;;;;;5309328;26;20005;-89
2024/04/18 00:57:34;;;;;;;0.10;0.10;;;6.30;99.90;;;;;;5314086;26;20023;-89
2024/04/18 01:00:00;;;;;;;0.10;0.10;;;;;;;;;;5312059;26;20005;-89
2024/04/18 01:02:29;;;;;;;0.00;0.00;;;6.30;99.90;;;;;;5307127;26;20421;-90
2024/04/18 01:04:55;;;;;;;0.00;0.00;;;;;;;;;;5297623;26;20008;-89
2024/04/18 01:07:21;;;;;;;0.10;0.10;;;;;;;;;;5306859;26;21313;-89
2024/04/18 01:09:47;;;;;;;0.08;0.08;;;;;;;;;;5306926;26;20012;-89
2024/04/18 01:12:13;;;;;;;0.08;0.08;;;;;;;;;;5308470;26;20037;-89
2024/04/18 01:14:39;;;;;;;0.10;0.10;;;;;;;;;;5305593;26;20070;-90
2024/04/18 01:17:05;;;;;;;0.10;0.10;;;;;;;;;;5323501;26;20015;-89
2024/04/18 01:19:31;;;;;;;0.00;0.00;;;;;;;;;;5309965;26;20012;-88
2024/04/18 01:21:57;;;;;;;0.10;0.10;;;;;;;;;;5320440;26;20022;-94
2024/04/18 01:24:23;;;;;;;0.00;0.00;;;;;;;;;;5336118;26;20048;-95
2024/04/18 01:26:49;;;;;;;0.00;0.00;;;;;;;;;;5338425;26;19993;-94
2024/04/18 01:29:15;;;;;;;0.10;0.10;;;;;;;;;;5315575;26;19997;-89
2024/04/18 01:31:41;;;;;;;0.10;0.10;;;;;;;;;;5312764;26;20001;-90
2024/04/18 01:34:07;;;;;;;0.00;0.00;;;;;;;;;;5312700;26;20005;-90
2024/04/18 01:36:33;;;;;;;0.00;0.00;;;;;;;;;;5304846;26;20082;-89
2024/04/18 01:38:59;;;;;;;0.05;0.05;;;;;;;;;;5318010;26;19996;-91
2024/04/18 01:41:25;;;;;;;0.10;0.10;;;;;;;;;;5306998;26;20012;-91
2024/04/18 01:43:51;;;;;;;0.10;0.10;;;;;;;;;;5312683;26;20020;-90
2024/04/18 01:46:17;;;;;;;0.10;0.10;;;;;;;;;;5314689;26;20436;-90
2024/04/18 01:48:45;;;;;;;0.10;0.10;;;6.10;99.90;;;;;;5312483;26;20345;-90
2024/04/18 01:51:11;;;;;;;0.00;0.00;;;;;;;;;;5297670;26;19997;-90
2024/04/18 01:53:37;;;;;;;0.00;0.00;;;;;;;;;;5326150;26;20011;-90
2024/04/18 01:56:03;;;;;;;0.10;0.10;;;;;;;;;;5307387;26;20353;-89
2024/04/18 01:58:29;;;;;;;0.00;0.00;;;;;;;;;;5308086;26;20016;-89
2024/04/18 02:00:55;;;;;;;0.00;0.00;;;;;;;;;;5308027;26;20662;-89
2024/04/18 02:03:21;;;;;;;0.10;0.10;;;;;;;;;;5308051;26;20024;-90
2024/04/18 02:05:47;;;;;;;0.10;0.10;;;;;;;;;;5341611;26;20520;-90
2024/04/18 02:08:13;;;;;;;0.10;0.10;;;;;;;;;;5328458;26;20037;-89
2024/04/18 02:10:39;;;;;;;0.10;0.10;;;;;;;;;;5310091;26;19998;-90
2024/04/18 02:13:04;;;;;;;0.10;0.10;;;;;;;;;;5332636;26;20001;-90
2024/04/18 03:16:59;;;;;;;0.10;0.10;;;;;;;;;;5295321;26;20013;-90
2024/04/18 03:19:25;;;;;;;0.10;0.10;;;;;;;;;;5271101;26;20416;-88
2024/04/18 03:21:51;;;;;;;0.10;0.10;;;;;;;;;;5274540;26;20380;-90
2024/04/18 03:24:18;;;;;;;0.10;0.10;;;5.20;99.90;;;;;;5278282;26;20002;-90
2024/04/18 03:26:45;;;;;;;0.03;0.03;;;;;;;;;;5303732;26;20043;-91
2024/04/18 03:29:11;;;;;;;0.10;0.10;;;5.20;99.90;;;;;;5329214;26;20009;-91
2024/04/18 03:31:37;;;;;;;0.08;0.08;;;;;;;;;;5304816;26;20016;-90
2024/04/18 03:34:03;;;;;;;0.10;0.10;;;;;;;;;;5310140;26;20002;-90
2024/04/18 03:36:30;;;;;;;0.00;0.00;;;;;;;;;;5305639;26;20024;-90
2024/04/18 03:38:56;;;;;;;0.10;0.10;;;;;;;;;;5307986;26;19997;-90
2024/04/18 03:41:22;;;;;;;0.00;0.00;;;;;;;;;;5297687;26;20013;-90
2024/04/18 03:43:48;;;;;;;0.10;0.10;;;;;;;;;;5318812;26;20074;-89
2024/04/18 03:46:14;;;;;;;0.10;0.10;;;;;;;;;;5301729;26;20010;-90
2024/04/18 03:48:40;;;;;;;0.05;0.05;;;;;;;;;;5307526;26;20009;-90
2024/04/18 03:51:06;;;;;;;0.10;0.10;;;;;;;;;;5304260;26;20031;-91
2024/04/18 03:53:32;;;;;;;0.10;0.10;;;;;;;;;;5303114;26;20537;-90
2024/04/18 03:55:58;;;;;;;0.10;0.10;;;;;;;;;;5303142;26;20002;-90
2024/04/18 03:58:24;;;;;;;0.10;0.10;;;;;;;;;;5297723;26;19997;-90
2024/04/18 04:00:50;;;;;;;0.10;0.10;;;;;;;;;;5295624;26;20005;-89
2024/04/18 04:03:16;;;;;;;0.10;0.10;;;;;;;;;;5304934;26;20008;-90
2024/04/18 04:05:42;;;;;;;0.10;0.10;;;;;;;;;;5297310;26;20001;-90
2024/04/18 04:08:09;;;;;;;0.10;0.10;;;;;;;;;;5309866;26;20005;-90
2024/04/18 04:10:35;;;;;;;0.10;0.10;;;;;;;;;;5303251;26;20010;-89
2024/04/18 04:13:01;;;;;;;0.10;0.10;;;;;;;;;;5303627;26;19997;-89
2024/04/18 04:15:27;;;;;;;0.10;0.10;;;;;;;;;;5300533;26;20090;-90
2024/04/18 04:17:54;;;;;;;0.10;0.10;;;;;;;;;;5302055;26;20034;-90
2024/04/18 04:20:19;;;;;;;0.10;0.10;;;;;;;;;;5301396;26;20042;-90
2024/04/18 04:22:45;;;;;;;0.03;0.03;;;;;;;;;;5300433;26;20021;-90
2024/04/18 04:25:11;;;;;;;0.03;0.03;;;;;;;;;;5306557;26;20001;-89
2024/04/18 04:27:37;;;;;;;0.00;0.00;;;;;;;;;;5308549;26;20026;-89
2024/04/18 04:30:03;;;;;;;0.10;0.10;;;;;;;;;;5302252;26;20378;-88
2024/04/18 04:32:29;;;;;;;0.00;0.00;;;;;;;;;;5305517;26;20028;-90
2024/04/18 04:34:55;;;;;;;0.00;0.00;;;;;;;;;;5306538;26;20053;-90
2024/04/18 04:37:21;;;;;;;0.00;0.00;;;;;;;;;;5308407;26;20081;-90
2024/04/18 04:39:47;;;;;;;0.10;0.10;;;;;;;;;;5306413;26;20074;-89
2024/04/18 04:42:13;;;;;;;0.00;0.00;;;;;;;;;;5302457;26;20005;-90
2024/04/18 04:44:39;;;;;;;0.00;0.00;;;;;;;;;;5307802;26;19997;-90
2024/04/18 04:47:07;;;;;;;0.10;0.10;;;;;;;;;;5309637;26;20013;-89
2024/04/18 04:49:33;;;;;;;0.10;0.10;;;;;;;;;;5307140;26;20019;-90
2024/04/18 04:52:00;;;;;;;0.10;0.10;;;;;;;;;;5310774;26;20019;-89
2024/04/18 04:54:26;;;;;;;0.10;0.10;;;;;;;;;;5338390;26;20006;-89
2024/04/18 04:56:52;;;;;;;0.10;0.10;;;;;;;;;;5305533;26;20004;-90
2024/04/18 04:59:17;;;;;;;0.10;0.10;;;;;;;;;;5306161;26;20359;-90
2024/04/18 05:01:43;;;;;;;0.05;0.05;;;;;;;;;;5308581;26;20087;-91
2024/04/18 05:04:10;;;;;;;0.10;0.10;;;;;;;;;;5311968;26;20001;-89
2024/04/18 05:06:36;;;;;;;0.10;0.10;;;;;;;;;;5310400;26;20024;-90
2024/04/18 05:09:02;;;;;;;0.00;0.00;;;;;;;;;;5310618;26;20386;-90
2024/04/18 05:11:28;;;;;;;0.00;0.00;;;;;;;;;;5310298;26;20001;-90
2024/04/18 05:13:53;;;;;;;0.00;0.00;;;;;;;;;;5311540;26;20333;-90
2024/04/18 05:16:19;;;;;;;0.10;0.10;;;;;;;;;;5314125;26;19997;-91
2024/04/18 05:18:45;;;;;;;0.10;0.10;;;;;;;;;;5311484;26;20375;-90
2024/04/18 05:21:11;;;;;;;0.10;0.10;;;;;;;;;;5312184;26;20036;-91
2024/04/18 05:23:37;;;;;;;0.10;0.10;;;;;;;;;;5294257;26;19998;-90
2024/04/18 05:26:03;;;;;;;0.10;0.10;;;4.40;99.90;;;;;;5317358;26;20001;-90
2024/04/18 05:31:00;;;;;;;0.10;0.10;;;;;;;;;;5312304;26;20074;-89
2024/04/18 05:31:27;;;;;;;0.10;0.10;;;;;;;;;;5320126;26;20005;-90
2024/04/18 05:33:53;;;;;;;0.10;0.10;;;;;;;;;;5318438;26;20089;-90
2024/04/18 05:36:18;;;;;;;0.10;0.10;;;;;;;;;;5309331;26;20334;-90
2024/04/18 05:38:44;;;;;;;0.00;0.00;;;;;;;;;;5327063;26;20009;-90
2024/04/18 05:41:10;;;;;;;0.00;0.00;;;;;;;;;;5311284;26;20486;-90
2024/04/18 05:43:36;;;;;;;0.10;0.10;;;;;;;;;;5309530;26;20005;-90
2024/04/18 05:46:02;;;;;;;0.10;0.10;;;;;;;;;;5309386;26;20002;-90
2024/04/18 05:48:30;;;;;;;0.10;0.10;;;;;;;;;;5312592;26;20000;-90
2024/04/18 05:50:56;;;;;;;0.00;0.00;;;;;;;;;;5309322;26;20004;-90
2024/04/18 05:53:22;;;;;;;0.10;0.10;;;;;;;;;;5298171;26;20001;-89
2024/04/18 05:55:48;;;;;;;0.10;0.10;;;;;;;;;;5312032;26;20005;-89
2024/04/18 05:58:15;;;;;;;0.00;0.00;;;;;;;;;;5304112;26;20020;-91
2024/04/18 06:00:41;;;;;;;0.10;0.10;;;;;;;;;;5335351;26;20001;-90
2024/04/18 06:03:07;;;;;;;0.05;0.05;;;;;;;;;;5298073;26;20013;-90
2024/04/18 06:05:33;;;;;;;0.10;0.10;;;;;;;;;;5312841;26;20012;-89
2024/04/18 06:07:59;;;;;;;0.10;0.10;;;;;;;;;;5314280;26;20336;-90
2024/04/18 06:10:25;;;;;;;0.10;0.10;;;;;;;;;;5314213;26;20344;-90
2024/04/18 06:12:51;;;;;;;0.10;0.10;;;;;;;;;;5303672;26;20490;-89
2024/04/18 06:15:17;;;;;;;0.10;0.10;;;;;;;;;;5309610;26;20013;-90
2024/04/18 06:17:44;;;;;;;0.00;0.00;;;;;;;;;;5308651;26;20005;-91
2024/04/18 06:20:10;;;;;;;0.00;0.00;;;;;;;;;;5306591;26;20005;-90
2024/04/18 06:22:36;;;;;;;0.10;0.10;;;;;;;;;;5310537;26;20041;-90
2024/04/18 06:25:02;;;;;;;0.00;0.00;;;;;;;;;;5293083;26;19996;-89
2024/04/18 06:27:28;;;;;;;0.10;0.10;;;;;;;;;;5310465;26;20335;-90
2024/04/18 06:29:54;;;;;;;0.08;0.08;;;;;;;;;;5316029;26;20005;-90
2024/04/18 06:32:20;;;;;;;0.10;0.10;;;6.90;99.90;;;;;;5312597;26;20447;-90
2024/04/18 06:34:46;;;;;;;0.00;0.00;;;;;;;;;;5308492;26;20001;-90
2024/04/18 06:37:13;;;;;;;0.10;0.10;;;;;;;;;;5303255;26;20010;-89
2024/04/18 06:39:39;;;;;;;0.10;0.10;;;;;;;;;;5310008;26;20473;-90
2024/04/18 06:42:05;;;;;;;0.03;0.03;;;;;;;;;;5302958;26;19997;-90
2024/04/18 06:44:31;;;;;;;0.10;0.10;;;;;;;;;;5295944;26;20066;-89
2024/04/18 06:46:56;;;;;;;0.10;0.10;;;;;;;;;;5303852;26;20079;-90
2024/04/18 06:49:22;;;;;;;0.00;0.00;;;;;;;;;;5314215;26;20092;-90
2024/04/18 06:51:48;;;;;;;0.08;0.08;;;;;;;;;;5304760;26;20474;-91
2024/04/18 06:54:14;;;;;;;0.10;0.10;;;;;;;;;;5306136;26;20002;-90
2024/04/18 06:56:40;;;;;;;0.00;0.00;;;;;;;;;;5309604;26;20013;-90
2024/04/18 06:59:06;;;;;;;0.10;0.10;;;;;;;;;;5314214;26;20016;-90
2024/04/18 07:01:32;;;;;;;0.10;0.10;;;;;;;;;;5302798;26;20037;-89
2024/04/18 07:03:58;;;;;;;0.10;0.10;;;;;;;;;;5299266;26;20002;-90
2024/04/18 07:06:24;;;;;;;0.10;0.10;;;;;;;;;;5300946;27;20001;-90
2024/04/18 07:08:51;;;;;;;0.00;0.00;;;;;;;;;;5313164;26;20071;-90
2024/04/18 07:11:17;;;;;;;0.10;0.10;;;;;;;;;;5311717;26;20004;-90
2024/04/18 07:13:42;;;;;;;0.10;0.10;;;;;;;;;;5303310;26;20020;-89
2024/04/18 07:16:09;;;;;;;0.10;0.10;;;;;;;;;;5299652;26;20012;-90
2024/04/18 07:18:35;;;;;;;0.10;0.10;;;;;;;;;;5311022;26;20025;-90
2024/04/18 07:21:01;;;;;;;0.10;0.10;;;;;;;;;;5309403;26;20005;-90
2024/04/18 07:23:27;;;;;;;0.10;0.10;;;;;;;;;;5301558;26;20021;-90
2024/04/18 07:25:52;;;;;;;0.10;0.10;;;;;;;;;;5310350;26;20016;-90
2024/04/18 07:28:19;;;;;;;0.10;0.10;;;;;;;;;;5313246;26;20482;-90
2024/04/18 07:30:45;;;;;;;0.03;0.03;;;;;;;;;;5304215;26;20013;-90
2024/04/18 07:33:11;;;;;;;0.10;0.10;;;;;;;;;;5306105;26;20001;-90
2024/04/18 07:35:37;;;;;;;0.00;0.00;;;;;;;;;;5306325;26;20072;-90
2024/04/18 07:38:03;;;;;;;0.00;0.00;;;;;;;;;;5305574;26;20033;-89
2024/04/18 07:40:29;;;;;;;0.10;0.10;;;;;;;;;;5306486;26;20027;-90
2024/04/18 07:42:55;;;;;;;0.05;0.05;;;;;;;;;;5303741;26;20519;-90
2024/04/18 07:45:21;;;;;;;0.00;0.00;;;;;;;;;;5294073;26;20083;-90
2024/04/18 07:47:47;;;;;;;0.10;0.10;;;;;;;;;;5302219;26;20069;-90
2024/04/18 07:50:13;;;;;;;0.00;0.00;;;;;;;;;;5300309;26;20067;-90
2024/04/18 07:52:39;;;;;;;0.00;0.00;;;;;;;;;;5301771;26;20024;-90
2024/04/18 07:55:08;;;;;;;0.00;0.00;;;;;;;;;;5306123;26;20472;-91
2024/04/18 07:57:34;;;;;;;0.00;0.00;;;;;;;;;;5291142;26;20371;-90
2024/04/18 08:00:03;;;;;;;0.10;0.10;;;;;;;;;;5295044;26;20020;-90
2024/04/18 08:02:29;;;;;;;0.00;0.00;;;;;;;;;;5302958;26;20071;-90
2024/04/18 08:04:59;;;;;;;0.00;0.00;;;;;;;;;;5306444;26;20048;-90
2024/04/18 08:07:28;;;;;;;0.10;0.10;;;;;;;;;;5307366;26;20015;-90
2024/04/18 08:09:54;;;;;;;0.10;0.10;;;;;;;;;;5304627;26;19993;-90
2024/04/18 08:12:20;;;;;;;0.00;0.00;;;;;;;;;;5305826;26;20001;-90
2024/04/18 08:14:47;;;;;;;0.10;0.10;;;;;;;;;;5301285;26;20067;-90
2024/04/18 08:17:13;;;;;;;0.00;0.00;;;;;;;;;;5295687;26;20082;-90
2024/04/18 08:19:39;;;;;;;0.00;0.00;;;;;;;;;;5311086;26;20475;-91
2024/04/18 08:22:05;;;;;;;0.00;0.00;;;;;;;;;;5305262;26;20015;-90
2024/04/18 08:24:33;;;;;;;0.00;0.00;;;;;;;;;;5308349;26;20351;-89
2024/04/18 08:26:59;;;;;;;0.00;0.00;;;;;;;;;;5306845;26;20005;-90
2024/04/18 08:29:26;;;;;;;0.08;0.08;;;;;;;;;;5295797;26;20025;-91
2024/04/18 08:31:53;;;;;;;0.00;0.00;;;10.40;99.90;;;;;;5300796;26;20533;-90
2024/04/18 08:34:20;;;;;;;0.03;0.03;;;;;;;;;;5305057;26;20464;-90
2024/04/18 08:36:46;;;;;;;0.00;0.00;;;;;;;;;;5305056;26;19997;-89
2024/04/18 08:39:12;;;;;;;0.00;0.00;;;;;;;;;;5307519;26;20045;-90
2024/04/18 08:41:38;;;;;;;0.00;0.00;;;;;;;;;;5303115;26;20016;-90
2024/04/18 08:44:04;;;;;;;0.00;0.00;;;;;;;;;;5304321;26;20009;-90
2024/04/18 08:46:32;;;;;;;0.00;0.00;;;10.70;99.90;;;;;;5305695;26;20020;-90
2024/04/18 08:48:58;;;;;;;0.00;0.00;;;;;;;;;;5304912;26;20060;-90
2024/04/18 08:51:28;;;;;;;0.00;0.00;;;;;;;;;;5299692;26;20029;-90
2024/04/18 08:53:54;;;;;;;0.00;0.00;;;;;;;;;;5308057;26;20005;-91
2024/04/18 08:56:25;;;;;;;0.10;0.10;;;;;;;;;;5305606;26;19997;-91
2024/04/18 08:58:54;;;;;;;0.00;0.00;;;;;;;;;;5299709;26;20002;-91
2024/04/18 09:01:20;;;;;;;0.10;0.10;;;;;;;;;;5303883;26;20002;-91
2024/04/18 09:04:03;;;;;;;0.00;0.00;;;10.80;99.90;;;;;;5312210;26;20402;-91
2024/04/18 09:06:29;;;;;;;0.00;0.00;;;;;;;;;;5302846;26;20029;-91
2024/04/18 09:09:26;;;;;;;0.10;0.10;;;10.20;99.90;;;;;;5303842;26;20435;-91
2024/04/18 09:11:52;;;;;;;0.00;0.00;;;;;;;;;;5293146;26;20585;-91
2024/04/18 09:14:18;;;;;;;0.00;0.00;;;;;;;;;;5307853;26;20005;-90
2024/04/18 09:16:51;;;;;;;0.10;0.10;;;;;;;;;;5307766;26;20005;-92
2024/04/18 09:19:20;;;;;;;0.00;0.00;;;;;;;;;;5307195;26;20718;-90
2024/04/18 09:21:46;;;;;;;0.00;0.00;;;;;;;;;;5306056;26;20368;-90
2024/04/18 09:24:12;;;;;;;0.00;0.00;;;;;;;;;;5335094;26;20499;-90
2024/04/18 09:26:38;;;;;;;0.00;0.00;;;;;;;;;;5305169;26;19997;-91
2024/04/18 09:29:04;;;;;;;0.00;0.00;;;;;;;;;;5305561;26;20001;-93
2024/04/18 09:31:30;;;;;;;0.10;0.10;;;;;;;;;;5308995;26;20016;-92
2024/04/18 09:34:14;;;;;;;;;;;;;;;;;;;;;
2024/04/18 09:36:54;;;;;;;0.00;0.00;;;10.80;98.30;;;;;;5332167;26;19998;-92
2024/04/18 09:39:28;;;;;;;0.00;0.00;;;;;;;;;;5322393;26;20005;-92
2024/04/18 09:42:00;;;;;;;0.00;0.00;;;;;;;;;;5335170;26;20070;-91
2024/04/18 10:22:17;;;;;;;0.00;0.00;;;;;;;;;;5230196;27;20065;-91
2024/04/18 10:24:49;;;;;;;0.00;0.00;;;10.80;96.30;;;;;;5214268;27;20007;-91
2024/04/18 10:27:18;;;;;;;0.00;0.00;;;10.50;97.50;;;;;;5215608;27;20362;-91
2024/04/18 10:29:58;;;;;;;0.00;0.00;;;10.60;97.70;;;;;;5219295;27;20013;-91
2024/04/18 10:32:28;;;;;;;;;;;10.60;97.80;;;;;;5206309;27;19995;-91
2024/04/18 10:34:54;;;;;;;0.00;0.00;;;;;;;;;;5209157;27;19927;-91
2024/04/18 10:37:20;;;;;;;0.00;0.00;;;;;;;;;;5203057;27;20003;-91
2024/04/18 10:39:50;;;;;;;0.00;0.00;;;;;;;;;;5219795;27;20077;-91
2024/04/18 10:42:20;;;;;;;0.10;0.10;;;10.90;98.60;;;;;;5213180;27;20012;-91
2024/04/18 10:46:00;;;;;;;0.00;0.00;;;11.10;99.10;;;;;;5225467;27;20002;-91
2024/04/18 10:48:20;;;;;;;0.00;0.00;;;11.40;98.30;;;;;;5218222;27;20587;-92
2024/04/18 10:51:12;;;;;;;0.00;0.00;;;11.70;97.40;;;;;;5230808;27;20003;-90
2024/04/18 10:53:46;;;;;;;0.00;0.00;;;;;;;;;;5224379;27;20019;-91
2024/04/18 11:03:01;;;;;;;0.00;0.00;;;11.90;95.30;;;;;;5185623;27;20030;-91
2024/04/18 11:05:40;;;;;;;0.00;0.00;;;;;;;;;;5209606;27;20003;-91
2024/04/18 11:08:11;;;;;;;0.00;0.00;;;;;;;;;;5212486;27;20035;-91
2024/04/18 11:10:43;;;;;;;0.00;0.00;;;;;;;;;;5210671;27;20358;-91
2024/04/18 11:13:15;;;;;;;0.00;0.00;;;;;;;;;;5205563;27;20014;-92
2024/04/18 11:15:41;;;;;;;0.00;0.00;;;;;;;;;;5202633;27;20087;-91
2024/04/18 11:18:07;;;;;;;0.00;0.00;;;;;;;;;;5207385;27;20007;-91
2024/04/18 11:20:33;;;;;;;0.00;0.00;;;11.40;95.70;;;;;;5205248;27;20458;-92
2024/04/18 11:22:59;;;;;;;0.00;0.00;;;;;;;;;;5205631;27;20015;-90
2024/04/18 11:25:26;;;;;;;0.00;0.00;;;;;;;;;;5201056;27;20509;-92
2024/04/18 11:27:52;;;;;;;0.00;0.00;;;;;;;;;;5197550;27;20003;-91
2024/04/18 11:30:19;;;;;;;0.00;0.00;;;;;;;;;;5202172;27;20003;-91
2024/04/18 11:32:55;;;;;;;0.00;0.00;;;11.50;98.40;;;;;;5214020;27;20575;-91
2024/04/18 11:35:24;;;;;;;0.00;0.00;;;;;;;;;;5187319;27;20007;-91
2024/04/18 11:37:52;;;;;;;0.00;0.00;;;;;;;;;;5202818;27;20519;-91
2024/04/18 11:40:20;;;;;;;0.00;0.00;;;;;;;;;;5195468;27;20086;-91
2024/04/18 11:42:49;;;;;;;0.00;0.00;;;;;;;;;;5203389;27;20042;-91
2024/04/18 11:45:17;;;;;;;0.00;0.00;;;;;;;;;;5216232;27;20017;-91
2024/04/18 11:48:31;;;;;;;0.00;0.00;;;11.60;95.20;;;;;;5216499;27;20003;-92
2024/04/18 13:11:58;;;;;;;;;;;;;;;;;;;;;
2024/04/18 13:15:13;;;;;;;0.00;0.00;;;12.80;91.70;;;;;;5302297;26;20013;-91
2024/04/18 13:17:39;;;;;;;0.00;0.00;;;;;;;;;;5327464;26;19997;-91
2024/04/18 13:20:08;;;;;;;0.00;0.00;;;;;;;;;;5311093;26;20011;-92
2024/04/18 13:22:34;;;;;;;0.00;0.00;;;;;;;;;;5336711;26;20009;-91
2024/04/18 13:25:00;;;;;;;0.00;0.00;;;;;;;;;;5311886;26;20335;-92
2024/04/18 13:27:27;;;;;;;0.00;0.00;;;;;;;;;;5316622;26;20001;-91
2024/04/18 13:29:54;;;;;;;0.00;0.00;;;;;;;;;;5310546;26;20008;-91
2024/04/18 13:32:20;;;;;;;0.00;0.00;;;;;;;;;;5306088;26;20015;-90
2024/04/18 13:34:47;;;;;;;0.00;0.00;;;;;;;;;;5311558;26;20011;-90
2024/04/18 13:37:13;;;;;;;0.03;0.03;;;;;;;;;;5303864;26;20468;-90
2024/04/18 13:39:44;;;;;;;0.00;0.00;;;;;;;;;;5314321;26;20001;-92
2024/04/18 13:42:10;;;;;;;0.00;0.00;;;;;;;;;;5316708;26;20001;-93
2024/04/18 13:44:36;;;;;;;0.00;0.00;;;;;;;;;;5312252;26;20006;-91
2024/04/18 13:47:02;;;;;;;0.00;0.00;;;;;;;;;;5306659;26;19998;-92
2024/04/18 13:49:29;;;;;;;0.00;0.00;;;;;;;;;;5321143;26;20016;-91
2024/04/18 13:51:55;;;;;;;0.00;0.00;;;;;;;;;;5311960;26;20005;-90
2024/04/18 13:54:22;;;;;;;0.00;0.00;;;;;;;;;;5310828;26;20026;-92
2024/04/18 13:56:48;;;;;;;0.00;0.00;;;;;;;;;;5308893;26;20001;-92
2024/04/18 13:59:14;;;;;;;0.00;0.00;;;;;;;;;;5305193;26;20048;-91
2024/04/18 14:01:40;;;;;;;0.00;0.00;;;;;;;;;;5306217;26;20001;-92
2024/04/18 14:04:07;;;;;;;0.00;0.00;;;;;;;;;;5303118;26;20466;-91
2024/04/18 14:06:34;;;;;;;0.00;0.00;;;;;;;;;;5305477;26;20251;-91
2024/04/18 14:09:01;;;;;;;0.00;0.00;;;;;;;;;;5310144;26;20550;-92
2024/04/18 14:11:27;;;;;;;0.00;0.00;;;;;;;;;;5312312;26;20001;-90
2024/04/18 14:13:53;;;;;;;0.00;0.00;;;;;;;;;;5314374;26;20001;-91
2024/04/18 14:19:04;;;;;;;0.00;0.00;;;;;;;;;;5334209;26;20011;-90
2024/04/18 14:21:30;;;;;;;0.00;0.00;;;;;;;;;;5318937;26;20522;-91
2024/04/18 14:23:56;;;;;;;0.00;0.00;;;;;;;;;;5321674;26;20019;-95
2024/04/18 14:26:22;;;;;;;0.00;0.00;;;;;;;;;;5331806;26;20004;-94
2024/04/18 14:28:48;;;;;;;0.00;0.00;;;;;;;;;;5315174;26;20020;-93
2024/04/18 14:31:14;;;;;;;0.00;0.00;;;;;;;;;;5293313;26;20009;-91
2024/04/18 14:33:40;;;;;;;0.00;0.00;;;;;;;;;;5309864;26;20000;-90
2024/04/18 14:36:07;;;;;;;0.00;0.00;;;;;;;;;;5312706;26;20004;-92
2024/04/18 14:38:33;;;;;;;0.00;0.00;;;;;;;;;;5310468;26;20418;-90
2024/04/18 14:40:59;;;;;;;0.00;0.00;;;;;;;;;;5312994;26;20017;-91
2024/04/18 14:43:26;;;;;;;0.00;0.00;;;;;;;;;;5321579;26;20001;-91
2024/04/18 14:45:54;;;;;;;0.00;0.00;;;12.60;83.10;;;;;;5304714;26;20467;-91
2024/04/18 14:48:23;;;;;;;0.00;0.00;;;;;;;;;;5311558;26;20005;-91
2024/04/18 14:50:52;;;;;;;0.00;0.00;;;12.60;81.00;;;;;;5312299;26;20344;-92
2024/04/18 14:53:23;;;;;;;0.00;0.00;;;;;;;;;;5300881;26;20146;-91
2024/04/18 14:55:49;;;;;;;0.00;0.00;;;;;;;;;;5294088;26;19997;-91
2024/04/18 14:58:16;;;;;;;0.00;0.00;;;;;;;;;;5307781;26;20104;-92
2024/04/18 15:00:42;;;;;;;0.00;0.00;;;;;;;;;;5302434;26;20001;-90
2024/04/18 15:03:08;;;;;;;0.00;0.00;;;;;;;;;;5305270;26;20004;-91
2024/04/18 15:05:34;;;;;;;0.00;0.00;;;;;;;;;;5302587;26;20451;-90
2024/04/18 15:08:00;;;;;;;0.00;0.00;;;;;;;;;;5293385;26;19993;-91
2024/04/18 15:10:26;;;;;;;0.00;0.00;;;;;;;;;;5302535;26;19997;-91
2024/04/18 15:12:52;;;;;;;0.00;0.00;;;;;;;;;;5297502;27;19998;-92
2024/04/18 15:15:18;;;;;;;0.00;0.00;;;;;;;;;;5311962;26;20431;-90
2024/04/18 15:17:45;;;;;;;0.00;0.00;;;;;;;;;;5311580;26;20012;-91
2024/04/18 15:20:11;;;;;;;0.00;0.00;;;;;;;;;;5311992;26;20471;-90
2024/04/18 15:22:38;;;;;;;0.00;0.00;;;;;;;;;;5298467;26;20001;-92
2024/04/18 15:25:05;;;;;;;0.00;0.00;;;12.80;83.40;;;;;;5310371;26;20020;-90
2024/04/18 15:27:31;;;;;;;0.00;0.00;;;;;;;;;;5311015;26;20036;-91
2024/04/18 15:29:57;;;;;;;0.00;0.00;;;;;;;;;;5314289;26;20009;-91
2024/04/18 15:32:23;;;;;;;0.00;0.00;;;;;;;;;;5298666;26;20005;-91
2024/04/18 15:34:50;;;;;;;0.00;0.00;;;;;;;;;;5306360;26;20015;-90
2024/04/18 15:37:16;;;;;;;0.00;0.00;;;;;;;;;;5300633;26;20005;-90
2024/04/18 15:39:42;;;;;;;0.00;0.00;;;;;;;;;;5310878;26;20001;-91
2024/04/18 15:42:08;;;;;;;0.00;0.00;;;;;;;;;;5308268;26;20005;-91
2024/04/18 15:44:46;;;;;;;0.00;0.00;;;13.10;84.90;;;;;;5304219;26;20017;-92
2024/04/18 15:47:12;;;;;;;0.00;0.00;;;;;;;;;;5307358;26;20490;-92
2024/04/18 15:49:38;;;;;;;0.10;0.10;;;;;;;;;;5299811;26;20001;-90
2024/04/18 15:52:05;;;;;;;0.00;0.00;;;;;;;;;;5303809;27;19998;-90
2024/04/18 15:54:31;;;;;;;0.00;0.00;;;;;;;;;;5306098;26;19997;-89
2024/04/18 15:56:57;;;;;;;0.00;0.00;;;;;;;;;;5306283;26;20002;-91
2024/04/18 15:59:23;;;;;;;0.00;0.00;;;;;;;;;;5311163;26;20000;-90
2024/04/18 16:01:52;;;;;;;0.00;0.00;;;;;;;;;;5294937;26;20001;-92
2024/04/18 16:04:23;;;;;;;0.00;0.00;;;;;;;;;;5310724;26;20016;-91
2024/04/18 16:06:49;;;;;;;0.00;0.00;;;;;;;;;;5310708;26;20056;-92
2024/04/18 16:09:35;;;;;;;0.00;0.00;;;12.60;89.70;;;;;;5306586;26;19997;-93
2024/04/18 16:12:16;;;;;;;0.00;0.00;;;;;;;;;;5318388;26;20001;-94
2024/04/18 16:14:45;;;;;;;0.00;0.00;;;;;;;;;;5330821;26;20002;-93
2024/04/18 16:17:10;;;;;;;0.00;0.00;;;;;;;;;;5334018;26;20012;-93
2024/04/18 16:19:37;;;;;;;0.00;0.00;;;;;;;;;;5332852;26;19997;-94
2024/04/18 16:22:03;;;;;;;0.00;0.00;;;;;;;;;;5333447;26;20001;-92
2024/04/18 16:24:29;;;;;;;0.00;0.00;;;;;;;;;;5333068;26;20008;-93
2024/04/18 16:26:55;;;;;;;0.00;0.00;;;;;;;;;;5327857;26;20005;-93
2024/04/18 16:29:22;;;;;;;0.00;0.00;;;;;;;;;;5320110;26;20009;-92
2024/04/18 16:31:53;;;;;;;0.00;0.00;;;12.40;91.00;;;;;;5319180;26;20027;-92
2024/04/18 16:34:22;;;;;;;0.00;0.00;;;;;;;;;;5319429;26;20570;-92
2024/04/18 16:37:22;;;;;;;0.00;0.00;;;12.50;92.00;;;;;;5320607;26;20017;-93
2024/04/18 16:43:47;;;;;;;;;;;;;;;;;;;;;
2024/04/18 17:24:42;;;;;;;0.00;0.00;;;11.50;93.40;;;;;;5311095;27;20001;-88
2024/04/18 17:27:08;;;;;;;0.00;0.00;;;11.50;96.20;;;;;;5270957;27;20067;-88
2024/04/18 17:29:33;;;;;;;0.00;0.00;;;11.70;93.90;;;;;;5274080;27;20723;-88
2024/04/18 17:31:59;;;;;;;0.00;0.00;;;11.30;93.90;;;;;;5282187;27;20009;-86
2024/04/18 17:34:26;;;;;;;0.00;0.00;;;11.60;94.40;;;;;;5289802;27;20006;-87
2024/04/18 17:36:52;;;;;;;0.05;0.05;;;;;;;;;;5282730;27;20458;-87
2024/04/18 17:39:18;;;;;;;0.00;0.00;;;;;;;;;;5284788;26;20008;-88
2024/04/18 17:41:44;;;;;;;0.00;0.00;;;;;;;;;;5332483;26;20001;-90
2024/04/18 17:44:10;;;;;;;0.00;0.00;;;;;;;;;;5290894;27;20331;-89
2024/04/18 17:46:36;;;;;;;0.00;0.00;;;;;;;;;;5281075;27;20454;-89
2024/04/18 17:49:01;;;;;;;0.00;0.00;;;11.00;93.70;;;;;;5292792;27;20020;-88
2024/04/18 17:51:27;;;;;;;0.00;0.00;;;10.80;93.90;;;;;;5298406;26;20032;-89
2024/04/18 17:53:52;;;;;;;0.00;0.00;;;10.80;94.10;;;;;;5282302;26;20743;-89
2024/04/18 17:56:18;;;;;;;0.00;0.00;;;;;;;;;;5283569;27;20002;-89
2024/04/18 17:58:44;;;;;;;0.00;0.00;;;;;;;;;;5303444;26;20430;-90
2024/04/18 18:01:10;;;;;;;0.00;0.00;;;10.70;95.10;;;;;;5289193;27;20025;-89
2024/04/18 18:03:35;;;;;;;0.00;0.00;;;10.60;95.10;;;;;;5289309;27;20037;-89
2024/04/18 18:06:01;;;;;;;0.00;0.00;;;10.50;95.20;;;;;;5280075;27;19997;-89
2024/04/18 18:08:27;;;;;;;0.00;0.00;;;12.40;95.80;;;;;;5283987;27;20014;-88
2024/04/18 18:10:52;;;;;;;0.00;0.00;;;10.30;96.30;;;;;;5284329;26;20013;-89
2024/04/18 18:13:18;;;;;;;0.00;0.00;;;10.30;96.40;;;;;;5281021;27;20467;-89
2024/04/18 18:15:44;;;;;;;0.00;0.00;;;;;;;;;;5292706;27;20007;-90
2024/04/18 18:18:12;;;;;;;0.00;0.00;;;;;;;;;;5282881;27;20020;-88
2024/04/18 18:20:38;;;;;;;0.00;0.00;;;;;;;;;;5290814;27;20005;-88
2024/04/18 18:23:04;;;;;;;0.00;0.00;;;;;;;;;;5283078;26;20013;-87